createdAt,value
2018-12-21T00:01:56.552Z,52.75
2018-12-21T00:04:27.113Z,52.23
2018-12-21T00:06:57.182Z,56.20
2018-12-21T00:09:27.226Z,58.78
2018-12-21T00:11:57.204Z,55.00
2018-12-21T00:14:27.214Z,51.87
2018-12-21T00:16:57.211Z,55.83
2018-12-21T00:19:27.622Z,53.60
2018-12-21T00:22:00.859Z,54.07
2018-12-21T00:24:31.012Z,55.30
2018-12-21T00:27:01.151Z,51.60
2018-12-21T00:29:31.256Z,52.37
2018-12-21T00:32:07.020Z,48.13
2018-12-21T00:34:42.151Z,49.47
2018-12-21T00:37:17.488Z,52.53
2018-12-21T00:39:54.102Z,53.75
2018-12-21T00:43:28.676Z,54.30
2018-12-21T00:46:03.464Z,51.85
2018-12-21T00:48:33.500Z,52.80
2018-12-21T00:51:03.744Z,51.48
2018-12-21T00:53:33.823Z,50.80
2018-12-21T00:56:04.193Z,52.80
2018-12-21T00:58:34.174Z,50.37
2018-12-21T01:01:04.375Z,52.40
2018-12-21T01:03:34.799Z,59.50
2018-12-21T01:06:05.182Z,56.47
2018-12-21T01:08:35.358Z,55.63
2018-12-21T01:11:05.423Z,55.80
2018-12-21T01:13:43.315Z,58.37
2018-12-21T01:16:13.579Z,57.80
2018-12-21T01:18:45.321Z,53.92
2018-12-21T01:21:15.386Z,50.37
2018-12-21T01:23:45.428Z,50.20
2018-12-21T01:26:17.047Z,52.60
2018-12-21T01:28:48.526Z,51.77
2018-12-21T01:31:20.523Z,55.47
2018-12-21T01:33:51.551Z,55.07
2018-12-21T01:36:25.714Z,56.20
2018-12-21T01:39:02.630Z,55.83
2018-12-21T01:41:36.320Z,56.23
2018-12-21T01:44:06.814Z,54.53
2018-12-21T01:46:39.337Z,56.77
2018-12-21T01:49:10.489Z,64.27
2018-12-21T01:51:47.195Z,58.27
2018-12-21T01:54:17.592Z,58.45
2018-12-21T01:56:54.499Z,57.13
2018-12-21T01:59:28.306Z,55.77
2018-12-21T02:01:58.704Z,57.90
2018-12-21T02:04:29.719Z,53.00
2018-12-21T02:06:59.750Z,52.73
2018-12-21T02:09:35.516Z,52.90
2018-12-21T02:12:08.403Z,54.50
2018-12-21T02:14:39.655Z,53.30
2018-12-21T02:17:11.466Z,53.77
2018-12-21T02:19:44.003Z,52.83
2018-12-21T02:22:16.630Z,51.80
2018-12-21T02:24:47.478Z,56.00
2018-12-21T02:27:17.768Z,56.98
2018-12-21T02:29:48.660Z,55.60
2018-12-21T02:32:18.622Z,55.37
2018-12-21T02:34:50.042Z,56.10
2018-12-21T02:37:20.733Z,55.55
2018-12-21T02:39:50.698Z,54.60
2018-12-21T02:42:21.737Z,54.43
2018-12-21T02:44:51.728Z,54.30
2018-12-21T02:47:22.891Z,54.00
2018-12-21T02:49:53.012Z,52.98
2018-12-21T02:52:27.022Z,50.93
2018-12-21T02:54:57.853Z,50.67
2018-12-21T02:57:34.877Z,53.40
2018-12-21T03:00:07.268Z,50.98
2018-12-21T03:02:39.893Z,46.37
2018-12-21T03:05:15.813Z,47.00
2018-12-21T03:07:45.792Z,48.50
2018-12-21T03:10:17.002Z,45.90
2018-12-21T03:12:47.995Z,45.40
2018-12-21T03:15:18.955Z,47.78
2018-12-21T03:17:52.127Z,52.70
2018-12-21T03:20:28.772Z,53.48
2018-12-21T03:22:59.436Z,57.00
2018-12-21T03:25:30.048Z,55.55
2018-12-21T03:28:00.015Z,50.17
2018-12-21T03:30:30.968Z,51.40
2018-12-21T03:33:02.936Z,50.10
2018-12-21T03:35:35.052Z,51.33
2018-12-21T03:38:06.052Z,49.60
2018-12-21T03:40:36.111Z,49.90
2018-12-21T03:43:06.130Z,51.30
2018-12-21T03:45:40.863Z,49.30
2018-12-21T03:48:11.079Z,49.03
2018-12-21T03:50:42.191Z,50.10
2018-12-21T03:53:12.161Z,48.50
2018-12-21T03:55:48.850Z,47.07
2018-12-21T03:58:19.050Z,47.33
2018-12-21T04:00:50.043Z,42.78
2018-12-21T04:03:22.635Z,46.37
2018-12-21T04:05:55.241Z,46.93
2018-12-21T04:08:28.989Z,44.37
2018-12-21T04:11:00.129Z,45.00
2018-12-21T04:13:31.146Z,48.68
2018-12-21T04:16:05.404Z,46.37
2018-12-21T04:18:38.652Z,47.73
2018-12-21T04:21:13.039Z,46.83
2018-12-21T04:23:44.879Z,46.33
2018-12-21T04:26:17.526Z,48.30
2018-12-21T04:28:49.944Z,45.70
2018-12-21T04:31:20.641Z,45.63
2018-12-21T04:33:53.233Z,44.50
2018-12-21T04:36:25.979Z,45.90
2018-12-21T04:38:58.657Z,46.20
2018-12-21T04:41:34.799Z,45.83
2018-12-21T04:44:07.205Z,48.00
2018-12-21T04:46:40.916Z,45.30
2018-12-21T04:49:15.666Z,45.74
2018-12-21T04:51:50.508Z,46.40
2018-12-21T04:54:23.612Z,47.53
2018-12-21T04:57:00.602Z,45.17
2018-12-21T04:59:33.530Z,47.70
2018-12-21T05:02:09.676Z,44.35
2018-12-21T05:04:40.913Z,47.90
2018-12-21T05:07:14.535Z,45.83
2018-12-21T05:09:45.075Z,47.90
2018-12-21T05:12:16.181Z,48.10
2018-12-21T05:14:46.384Z,45.27
2018-12-21T05:17:21.369Z,48.05
2018-12-21T05:19:57.284Z,49.67
2018-12-21T05:22:32.434Z,47.73
2018-12-21T05:25:04.796Z,45.20
2018-12-21T05:27:36.425Z,43.43
2018-12-21T05:30:09.128Z,46.47
2018-12-21T05:32:41.732Z,43.90
2018-12-21T05:35:20.045Z,45.27
2018-12-21T05:37:51.342Z,46.60
2018-12-21T05:40:24.744Z,45.87
2018-12-21T05:42:54.818Z,44.17
2018-12-21T05:45:26.121Z,44.20
2018-12-21T05:47:58.179Z,47.60
2018-12-21T05:50:31.986Z,47.90
2018-12-21T05:53:05.066Z,44.60
2018-12-21T05:55:37.921Z,48.30
2018-12-21T05:58:10.367Z,48.05
2018-12-21T06:00:42.120Z,48.13
2018-12-21T06:03:14.853Z,45.38
2018-12-21T06:05:46.819Z,47.10
2018-12-21T06:08:19.084Z,47.70
2018-12-21T06:10:50.047Z,48.77
2018-12-21T06:13:22.352Z,58.23
2018-12-21T06:15:53.957Z,49.58
2018-12-21T06:18:25.139Z,50.60
2018-12-21T06:20:57.185Z,52.10
2018-12-21T06:23:31.118Z,50.17
2018-12-21T06:26:03.105Z,49.67
2018-12-21T06:28:35.138Z,56.40
2018-12-21T06:31:06.025Z,55.67
2018-12-21T06:33:39.153Z,59.10
2018-12-21T06:36:10.239Z,61.50
2018-12-21T06:38:41.157Z,56.20
2018-12-21T06:41:12.456Z,69.00
2018-12-21T06:43:42.705Z,63.80
2018-12-21T06:46:14.225Z,74.97
2018-12-21T06:48:46.058Z,84.57
2018-12-21T06:51:19.448Z,73.80
2018-12-21T06:53:51.031Z,64.53
2018-12-21T06:56:21.214Z,68.00
2018-12-21T06:58:53.095Z,67.13
2018-12-21T07:01:26.164Z,74.95
2018-12-21T07:04:01.579Z,63.90
2018-12-21T07:06:33.082Z,61.77
2018-12-21T07:09:05.519Z,62.90
2018-12-21T07:11:37.266Z,67.20
2018-12-21T07:14:08.214Z,64.67
2018-12-21T07:16:41.181Z,64.27
2018-12-21T07:19:12.362Z,67.23
2018-12-21T07:21:43.051Z,62.30
2018-12-21T07:24:14.485Z,63.03
2018-12-21T07:26:47.284Z,54.70
2018-12-21T07:29:24.977Z,56.40
2018-12-21T07:31:56.214Z,54.60
2018-12-21T07:34:26.518Z,54.80
2018-12-21T07:36:57.141Z,53.95
2018-12-21T07:39:28.172Z,49.77
2018-12-21T07:41:58.575Z,48.67
2018-12-21T07:44:29.352Z,48.80
2018-12-21T07:46:59.855Z,47.73
2018-12-21T07:49:30.396Z,47.55
2018-12-21T07:52:00.805Z,48.00
2018-12-21T07:54:31.664Z,50.27
2018-12-21T07:57:02.456Z,47.17
2018-12-21T07:59:33.086Z,48.03
2018-12-21T08:02:04.439Z,46.95
2018-12-21T08:04:37.261Z,47.47
2018-12-21T08:07:16.500Z,48.53
2018-12-21T08:09:47.298Z,46.40
2018-12-21T08:12:18.580Z,51.37
2018-12-21T08:18:48.636Z,51.85
2018-12-21T08:21:21.299Z,50.80
2018-12-21T08:23:54.789Z,52.80
2018-12-21T08:26:25.229Z,50.13
2018-12-21T08:28:56.104Z,48.60
2018-12-21T08:31:26.731Z,45.12
2018-12-21T08:33:58.340Z,45.43
2018-12-21T08:36:29.174Z,45.00
2018-12-21T08:38:59.499Z,42.80
2018-12-21T08:41:30.186Z,44.57
2018-12-21T08:44:01.058Z,45.57
2018-12-21T08:46:31.945Z,42.23
2018-12-21T08:49:03.009Z,45.03
2018-12-21T08:51:36.769Z,49.20
2018-12-21T08:54:11.650Z,45.90
2018-12-21T08:56:51.027Z,45.63
2018-12-21T08:59:27.205Z,42.80
2018-12-21T09:02:02.027Z,43.28
2018-12-21T09:05:39.277Z,44.47
2018-12-21T09:08:13.730Z,38.10
2018-12-21T09:14:47.158Z,45.77
2018-12-21T09:17:23.770Z,39.03
2018-12-21T09:23:50.230Z,40.80
2018-12-21T09:26:43.004Z,39.33
2018-12-21T09:29:23.563Z,41.15
2018-12-21T09:32:08.014Z,45.53
2018-12-21T09:34:43.694Z,42.10
2018-12-21T09:37:20.470Z,41.93
2018-12-21T09:39:54.890Z,42.53
2018-12-21T09:42:33.147Z,41.03
2018-12-21T09:45:12.654Z,37.70
2018-12-21T09:47:52.955Z,37.55
2018-12-21T09:50:25.746Z,38.90
2018-12-21T09:53:03.192Z,37.88
2018-12-21T09:55:45.647Z,37.80
2018-12-21T09:58:25.771Z,37.87
2018-12-21T10:01:01.299Z,39.78
2018-12-21T10:03:37.136Z,39.80
2018-12-21T10:06:15.390Z,36.33
2018-12-21T10:08:51.532Z,37.03
2018-12-21T10:15:15.710Z,36.58
2018-12-21T10:17:50.424Z,36.13
2018-12-21T10:20:24.435Z,36.63
2018-12-21T10:23:04.573Z,31.17
2018-12-21T10:25:41.054Z,32.73
2018-12-21T10:32:13.296Z,30.83
2018-12-21T10:34:53.351Z,31.53
2018-12-21T10:37:37.591Z,31.55
2018-12-21T10:40:12.539Z,31.00
2018-12-21T10:46:57.961Z,26.55
2018-12-21T10:52:29.241Z,27.70
2018-12-21T10:55:16.282Z,28.70
2018-12-21T10:57:57.962Z,31.15
2018-12-21T11:00:43.090Z,33.90
2018-12-21T11:03:24.954Z,31.33
2018-12-21T11:06:05.622Z,30.97
2018-12-21T11:18:11.546Z,32.30
2018-12-21T11:20:57.263Z,33.33
2018-12-21T11:23:33.071Z,31.43
2018-12-21T11:26:12.002Z,30.53
2018-12-21T11:28:50.398Z,30.27
2018-12-21T11:31:32.298Z,27.17
2018-12-21T11:34:08.491Z,27.83
2018-12-21T11:36:44.576Z,22.73
2018-12-21T11:39:21.689Z,24.07
2018-12-21T11:41:59.040Z,27.67
2018-12-21T11:44:39.664Z,23.90
2018-12-21T11:47:19.389Z,22.20
2018-12-21T11:49:56.280Z,21.80
2018-12-21T11:52:38.929Z,24.37
2018-12-21T11:55:23.159Z,21.90
2018-12-21T11:58:04.934Z,31.50
2018-12-21T12:00:42.653Z,33.27
2018-12-21T12:03:19.367Z,32.67
2018-12-21T12:06:04.782Z,34.90
2018-12-21T12:08:48.784Z,35.90
2018-12-21T12:11:47.113Z,33.20
2018-12-21T12:14:33.449Z,30.80
2018-12-21T12:17:25.173Z,30.10
2018-12-21T12:20:07.164Z,32.90
2018-12-21T12:22:54.242Z,32.07
2018-12-21T12:25:33.945Z,30.80
2018-12-21T12:28:19.908Z,29.93
2018-12-21T12:31:00.145Z,30.77
2018-12-21T12:33:47.196Z,29.87
2018-12-21T12:37:03.506Z,28.37
2018-12-21T12:47:12.582Z,25.67
2018-12-21T12:49:44.616Z,25.10
2018-12-21T12:52:19.910Z,22.63
2018-12-21T12:55:06.607Z,23.32
2018-12-21T12:57:53.651Z,24.57
2018-12-21T13:00:33.177Z,26.70
2018-12-21T13:03:20.011Z,26.40
2018-12-21T13:06:02.559Z,22.80
2018-12-21T13:08:41.931Z,25.30
2018-12-21T13:11:17.848Z,24.77
2018-12-21T13:23:05.412Z,21.90
2018-12-21T13:25:45.718Z,22.90
2018-12-21T13:28:49.078Z,21.97
2018-12-21T13:35:07.005Z,20.67
2018-12-21T13:56:16.061Z,18.27
2018-12-21T13:59:01.890Z,19.60
2018-12-21T14:01:55.376Z,20.63
2018-12-21T14:04:38.171Z,18.20
2018-12-21T14:07:20.780Z,17.23
2018-12-21T14:09:59.799Z,17.50
2018-12-21T14:12:33.738Z,18.60
2018-12-21T14:15:04.373Z,19.70
2018-12-21T14:17:35.183Z,18.73
2018-12-21T14:20:10.231Z,20.03
2018-12-21T14:22:43.014Z,19.40
2018-12-21T14:25:28.790Z,19.70
2018-12-21T14:28:07.826Z,20.63
2018-12-21T14:31:17.749Z,19.30
2018-12-21T14:33:55.855Z,20.30
2018-12-21T14:36:33.866Z,22.60
2018-12-21T14:39:13.632Z,46.03
2018-12-21T14:41:52.031Z,22.77
2018-12-21T14:44:24.776Z,28.90
2018-12-21T14:46:55.651Z,22.70
2018-12-21T14:49:26.091Z,23.32
2018-12-21T14:51:56.355Z,23.25
2018-12-21T14:54:27.112Z,22.30
2018-12-21T14:56:58.109Z,21.63
2018-12-21T14:59:30.606Z,22.53
2018-12-21T15:02:58.404Z,23.87
2018-12-21T15:05:59.333Z,25.77
2018-12-21T15:08:44.553Z,26.10
2018-12-21T15:12:03.047Z,26.70
2018-12-21T15:14:45.637Z,25.77
2018-12-21T15:17:18.281Z,27.75
2018-12-21T15:19:49.249Z,25.70
2018-12-21T15:25:05.562Z,25.17
2018-12-21T15:27:36.451Z,26.70
2018-12-21T15:30:18.949Z,24.80
2018-12-21T15:32:54.299Z,24.25
2018-12-21T15:35:27.298Z,25.27
2018-12-21T15:38:23.138Z,26.57
2018-12-21T15:41:10.852Z,26.30
2018-12-21T15:43:54.256Z,24.60
2018-12-21T15:46:31.726Z,26.50
2018-12-21T15:49:09.237Z,28.67
2018-12-21T15:51:48.565Z,32.40
2018-12-21T15:54:34.734Z,31.90
2018-12-21T16:05:09.798Z,25.97
2018-12-21T16:07:41.303Z,33.30
2018-12-21T16:10:21.959Z,36.80
2018-12-21T16:12:54.536Z,29.70
2018-12-21T16:15:36.373Z,25.13
2018-12-21T16:18:13.056Z,37.93
2018-12-21T16:20:55.853Z,41.83
2018-12-21T16:26:09.923Z,22.90
2018-12-21T16:28:42.101Z,19.10
2018-12-21T16:31:14.723Z,19.17
2018-12-21T16:33:51.449Z,20.73
2018-12-21T16:36:24.947Z,20.53
2018-12-21T16:38:59.507Z,19.30
2018-12-21T16:41:33.080Z,20.53
2018-12-21T16:44:13.199Z,26.20
2018-12-21T16:46:52.097Z,26.27
2018-12-21T16:49:30.317Z,25.40
2018-12-21T16:52:10.721Z,24.70
2018-12-21T16:54:55.984Z,25.10
2018-12-21T16:57:36.042Z,27.03
2018-12-21T17:00:18.861Z,27.70
2018-12-21T17:03:03.663Z,35.60
2018-12-21T17:05:36.614Z,25.20
2018-12-21T17:08:15.840Z,24.30
2018-12-21T17:10:48.900Z,23.03
2018-12-21T17:13:31.690Z,24.50
2018-12-21T17:16:12.395Z,22.50
2018-12-21T17:18:51.300Z,23.37
2018-12-21T17:21:22.680Z,111.50
2018-12-21T17:23:54.907Z,64.10
2018-12-21T17:26:29.743Z,52.27
2018-12-21T17:29:00.943Z,29.93
2018-12-21T17:31:33.360Z,26.97
2018-12-21T17:34:32.678Z,18.70
2018-12-21T17:37:11.960Z,26.17
2018-12-21T17:39:48.409Z,22.20
2018-12-21T17:42:24.589Z,18.97
2018-12-21T17:44:54.985Z,19.20
2018-12-21T17:47:36.535Z,18.30
2018-12-21T17:50:34.400Z,18.93
2018-12-21T17:53:15.900Z,16.97
2018-12-21T17:55:53.732Z,16.00
2018-12-21T17:58:32.816Z,16.40
2018-12-21T18:01:05.163Z,16.40
2018-12-21T18:03:47.014Z,16.00
2018-12-21T18:06:34.779Z,15.30
2018-12-21T18:09:14.210Z,14.60
2018-12-21T18:11:57.162Z,16.13
2018-12-21T18:14:36.556Z,16.50
2018-12-21T18:17:16.728Z,16.97
2018-12-21T18:20:01.553Z,17.17
2018-12-21T18:22:34.188Z,19.80
2018-12-21T18:28:10.729Z,30.10
2018-12-21T18:30:52.905Z,29.40
2018-12-21T18:33:24.930Z,23.47
2018-12-21T18:35:55.154Z,20.60
2018-12-21T18:38:27.835Z,17.43
2018-12-21T18:40:59.142Z,18.50
2018-12-21T18:43:37.671Z,17.70
2018-12-21T18:46:18.220Z,20.10
2018-12-21T18:48:49.924Z,17.67
2018-12-21T18:51:24.163Z,19.30
2018-12-21T18:53:54.546Z,20.23
2018-12-21T18:59:55.648Z,17.83
2018-12-21T19:02:30.096Z,18.60
2018-12-21T19:05:00.173Z,29.30
2018-12-21T19:07:47.343Z,20.27
2018-12-21T19:10:28.840Z,17.83
2018-12-21T19:12:59.278Z,25.67
2018-12-21T19:15:32.321Z,22.30
2018-12-21T19:18:02.740Z,39.00
2018-12-21T19:20:40.366Z,35.20
2018-12-21T19:23:11.366Z,20.70
2018-12-21T19:25:42.398Z,17.20
2018-12-21T19:28:13.234Z,18.63
2018-12-21T19:30:48.064Z,15.97
2018-12-21T19:33:19.725Z,16.37
2018-12-21T19:35:50.091Z,16.13
2018-12-21T19:38:31.995Z,16.30
2018-12-21T19:41:06.964Z,18.35
2018-12-21T19:43:37.355Z,24.07
2018-12-21T19:46:08.242Z,32.97
2018-12-21T19:48:43.057Z,37.73
2018-12-21T19:51:15.367Z,29.20
2018-12-21T19:53:46.853Z,24.67
2018-12-21T19:56:25.853Z,21.65
2018-12-21T19:58:57.125Z,18.17
2018-12-21T20:01:27.536Z,16.90
2018-12-21T20:03:58.300Z,17.40
2018-12-21T20:06:36.708Z,16.23
2018-12-21T20:09:12.338Z,18.20
2018-12-21T20:11:44.472Z,16.73
2018-12-21T20:14:16.424Z,20.10
2018-12-21T20:16:47.271Z,18.10
2018-12-21T20:19:17.904Z,20.25
2018-12-21T20:21:48.518Z,21.27
2018-12-21T20:24:20.363Z,21.63
2018-12-21T20:26:56.533Z,18.90
2018-12-21T20:29:31.057Z,20.77
2018-12-21T20:32:05.495Z,19.30
2018-12-21T20:34:36.478Z,18.83
2018-12-21T20:37:07.419Z,19.73
2018-12-21T20:39:40.716Z,18.30
2018-12-21T20:42:11.524Z,17.30
2018-12-21T20:44:44.577Z,13.70
2018-12-21T20:47:15.627Z,13.90
2018-12-21T20:49:59.787Z,15.20
2018-12-21T20:52:32.510Z,15.53
2018-12-21T20:55:05.065Z,14.40
2018-12-21T20:57:36.958Z,16.00
2018-12-21T21:00:13.767Z,16.60
2018-12-21T21:02:44.186Z,15.27
2018-12-21T21:05:22.179Z,17.60
2018-12-21T21:07:54.728Z,15.97
2018-12-21T21:10:25.677Z,14.60
2018-12-21T21:12:59.606Z,13.47
2018-12-21T21:15:32.768Z,14.63
2018-12-21T21:18:08.833Z,12.97
2018-12-21T21:28:50.832Z,9.90
2018-12-21T21:32:05.600Z,38.77
2018-12-21T21:34:41.189Z,13.93
2018-12-21T21:37:11.712Z,11.00
2018-12-21T21:39:56.166Z,10.67
2018-12-21T21:42:37.183Z,9.80
2018-12-21T21:45:08.299Z,10.13
2018-12-21T21:47:40.787Z,9.27
2018-12-21T21:50:10.874Z,10.27
2018-12-21T21:52:41.807Z,10.53
2018-12-21T21:55:13.216Z,9.63
2018-12-21T21:57:51.599Z,10.50
2018-12-21T22:00:24.954Z,9.60
2018-12-21T22:03:04.485Z,10.73
2018-12-21T22:05:49.372Z,10.27
2018-12-21T22:08:28.237Z,10.37
2018-12-21T22:22:05.796Z,8.50
2018-12-21T22:51:47.678Z,8.73
2018-12-21T22:54:43.964Z,9.00
